Time;durP1;ratioP1;P1;durP2;ratioP2;P2;SDS_P1;SDS_P2;PMS_P1;PMS_P2;Temp;Humidity;BMP_temperature;BMP_pressure;BME280_temperature;BME280_humidity;BME280_pressure;Samples;Min_cycle;Max_cycle;Signal;HPM_P1;HPM_P2
2022/11/07 00:02:10;;;;;;;14.67;1.97;;;11.70;99.90;;;;;;5030320;28;20209;-61
2022/11/07 00:04:35;;;;;;;13.90;1.90;;;11.90;99.90;;;;;;5030188;28;20255;-61
2022/11/07 00:07:01;;;;;;;14.30;2.20;;;11.80;99.90;;;;;;5030661;28;20304;-60
2022/11/07 00:09:28;;;;;;;27.07;3.20;;;;;;;;;;5029688;28;20188;-61
2022/11/07 00:11:54;;;;;;;11.80;1.90;;;;;;;;;;5030550;28;20308;-60
2022/11/07 00:14:20;;;;;;;17.87;2.20;;;;;;;;;;5030695;28;20217;-60
2022/11/07 00:16:47;;;;;;;14.40;2.60;;;11.60;99.90;;;;;;5030269;28;20186;-60
2022/11/07 00:19:18;;;;;;;13.47;2.00;;;11.60;99.90;;;;;;5030195;28;20645;-60
2022/11/07 00:21:44;;;;;;;15.97;2.40;;;11.80;99.90;;;;;;5030079;28;20190;-61
2022/11/07 00:24:11;;;;;;;22.67;2.27;;;11.80;99.90;;;;;;5029742;28;20193;-60
2022/11/07 00:26:37;;;;;;;12.00;1.60;;;;;;;;;;5029874;28;20202;-60
2022/11/07 00:29:04;;;;;;;19.80;3.43;;;;;;;;;;5032314;28;20174;-60
2022/11/07 00:31:30;;;;;;;10.07;1.80;;;;;;;;;;5033934;28;20217;-60
2022/11/07 00:33:56;;;;;;;13.93;2.30;;;11.90;99.90;;;;;;5026737;28;20289;-60
2022/11/07 00:36:25;;;;;;;16.33;2.03;;;11.70;99.90;;;;;;5031438;28;20182;-60
2022/11/07 00:38:51;;;;;;;11.80;1.87;;;;;;;;;;5020687;28;20638;-59
2022/11/07 00:41:17;;;;;;;19.83;2.17;;;11.80;99.90;;;;;;5022403;28;20185;-59
2022/11/07 00:43:43;;;;;;;16.83;2.40;;;11.40;99.90;;;;;;5032339;28;20200;-60
2022/11/07 00:46:10;;;;;;;15.50;2.40;;;13.00;99.90;;;;;;5034044;28;20220;-60
2022/11/07 00:48:36;;;;;;;11.53;2.23;;;;;;;;;;5032394;28;20235;-60
2022/11/07 00:51:11;;;;;;;17.30;1.97;;;11.90;99.90;;;;;;5033523;28;20269;-59
2022/11/07 00:53:37;;;;;;;20.93;2.33;;;;;;;;;;5033018;28;20631;-59
2022/11/07 00:56:06;;;;;;;15.73;1.80;;;11.80;99.90;;;;;;5032968;28;20688;-60
2022/11/07 00:58:32;;;;;;;15.70;2.40;;;11.90;99.90;;;;;;5016907;28;20791;-60
2022/11/07 01:00:58;;;;;;;11.77;2.67;;;;;;;;;;5032711;28;20234;-60
2022/11/07 01:06:10;;;;;;;15.30;2.13;;;;;;;;;;5033476;28;20192;-60
2022/11/07 01:08:36;;;;;;;9.80;1.93;;;11.90;99.90;;;;;;5032066;28;20170;-60
2022/11/07 01:11:05;;;;;;;20.40;2.43;;;11.70;99.90;;;;;;5032774;28;20636;-61
2022/11/07 01:13:31;;;;;;;14.70;2.93;;;;;;;;;;5032946;28;20397;-60
2022/11/07 01:15:57;;;;;;;11.20;1.97;;;11.90;99.90;;;;;;5033136;28;20182;-60
2022/11/07 01:18:23;;;;;;;8.07;1.43;;;12.10;99.90;;;;;;5033133;28;20387;-60
2022/11/07 01:20:49;;;;;;;20.87;3.30;;;;;;;;;;5032694;28;20672;-60
2022/11/07 01:23:15;;;;;;;15.30;2.40;;;12.10;99.90;;;;;;5032934;28;20263;-60
2022/11/07 01:25:41;;;;;;;18.10;2.60;;;12.00;99.90;;;;;;5032516;28;20212;-60
2022/11/07 01:28:07;;;;;;;14.37;2.10;;;;;;;;;;5025169;28;20616;-60
2022/11/07 01:30:37;;;;;;;14.80;3.93;;;11.90;99.90;;;;;;5032788;28;20174;-60
2022/11/07 01:33:03;;;;;;;13.50;2.80;;;;;;;;;;5027277;28;20170;-60
2022/11/07 01:35:29;;;;;;;18.90;3.13;;;11.90;99.90;;;;;;5025910;28;20185;-60
2022/11/07 01:37:55;;;;;;;20.63;2.17;;;;;;;;;;5022830;28;20190;-60
2022/11/07 01:40:20;;;;;;;19.13;2.43;;;11.60;99.90;;;;;;5031824;28;20249;-61
2022/11/07 01:42:46;;;;;;;15.17;2.20;;;;;;;;;;5032526;28;20615;-59
2022/11/07 01:45:25;;;;;;;23.57;2.70;;;11.80;99.90;;;;;;5031795;28;20253;-59
2022/11/07 01:47:53;;;;;;;18.00;1.63;;;12.00;99.90;;;;;;5013028;28;20173;-60
2022/11/07 01:50:19;;;;;;;19.63;2.20;;;12.40;99.90;;;;;;5032374;28;20182;-63
2022/11/07 01:52:48;;;;;;;23.50;3.07;;;11.90;99.90;;;;;;5032453;28;20232;-61
2022/11/07 01:55:20;;;;;;;17.87;2.50;;;12.20;99.90;;;;;;5032330;28;20182;-61
2022/11/07 01:57:46;;;;;;;14.17;2.30;;;;;;;;;;5032031;28;20267;-61
2022/11/07 02:00:15;;;;;;;22.97;2.73;;;12.30;99.90;;;;;;5032019;28;20213;-61
2022/11/07 02:02:44;;;;;;;20.77;2.70;;;12.30;99.90;;;;;;5031578;28;20548;-62
2022/11/07 02:05:18;;;;;;;22.40;3.27;;;12.10;99.90;;;;;;5032337;28;20308;-62
2022/11/07 02:07:44;;;;;;;20.33;2.70;;;12.40;99.90;;;;;;5032292;28;20204;-62
2022/11/07 02:10:10;;;;;;;18.07;2.53;;;12.30;99.90;;;;;;5031756;28;20640;-62
2022/11/07 02:12:36;;;;;;;19.33;2.67;;;12.40;99.90;;;;;;5031835;28;20178;-62
2022/11/07 02:15:02;;;;;;;19.70;2.87;;;12.30;99.90;;;;;;5031848;28;20186;-62
2022/11/07 02:17:28;;;;;;;26.27;2.93;;;;;;;;;;5031804;28;20645;-62
2022/11/07 02:19:55;;;;;;;16.33;2.57;;;12.30;99.90;;;;;;5031979;28;20236;-61
2022/11/07 02:22:50;;;;;;;18.03;2.83;;;9.60;99.90;;;;;;5030224;28;20265;-61
2022/11/07 02:25:18;;;;;;;20.73;3.37;;;12.50;99.90;;;;;;5030030;28;20213;-61
2022/11/07 02:27:47;;;;;;;18.13;2.60;;;12.40;99.90;;;;;;5022668;28;20261;-61
2022/11/07 02:30:15;;;;;;;24.33;2.60;;;;;;;;;;5026671;28;20634;-60
2022/11/07 02:32:41;;;;;;;20.70;3.20;;;;;;;;;;5025430;28;20190;-61
2022/11/07 02:35:40;;;;;;;18.07;2.70;;;12.60;99.90;;;;;;5031831;28;20210;-60
2022/11/07 02:38:10;;;;;;;26.37;3.27;;;12.50;99.90;;;;;;5031247;28;20737;-61
2022/11/07 02:40:37;;;;;;;16.63;2.77;;;;;;;;;;5031755;28;20189;-60
2022/11/07 02:43:04;;;;;;;28.23;3.57;;;12.50;99.90;;;;;;5031329;28;20261;-61
2022/11/07 02:45:33;;;;;;;33.43;4.50;;;12.40;99.90;;;;;;5031588;28;20292;-60
2022/11/07 02:47:59;;;;;;;20.33;2.13;;;12.30;99.90;;;;;;5030683;28;20192;-61
2022/11/07 02:50:25;;;;;;;32.43;3.40;;;12.50;99.90;;;;;;5030757;28;20186;-64
2022/11/07 02:52:51;;;;;;;38.13;3.93;;;;;;;;;;5031145;28;20181;-61
2022/11/07 02:55:17;;;;;;;23.23;3.47;;;12.40;99.90;;;;;;5031603;28;20185;-61
2022/11/07 02:57:43;;;;;;;27.23;3.60;;;12.70;99.90;;;;;;5030207;28;20214;-61
2022/11/07 03:00:11;;;;;;;23.13;3.37;;;12.50;99.90;;;;;;5030465;28;20240;-60
2022/11/07 03:02:37;;;;;;;28.90;3.63;;;;;;;;;;5012834;28;20185;-60
2022/11/07 03:05:03;;;;;;;27.03;3.20;;;;;;;;;;5031014;28;20217;-61
2022/11/07 03:07:29;;;;;;;21.83;3.50;;;12.80;99.90;;;;;;5030866;28;20185;-61
2022/11/07 03:09:55;;;;;;;24.67;3.20;;;;;;;;;;5030625;28;21048;-60
2022/11/07 03:12:21;;;;;;;26.67;3.43;;;;;;;;;;5030251;28;20232;-60
2022/11/07 03:14:46;;;;;;;24.03;3.40;;;12.40;99.90;;;;;;5030895;28;20701;-60
2022/11/07 03:17:12;;;;;;;28.07;3.87;;;;;;;;;;5030707;28;20192;-60
2022/11/07 03:19:38;;;;;;;21.77;3.20;;;;;;;;;;5020862;28;20538;-60
2022/11/07 03:22:04;;;;;;;29.13;4.30;;;;;;;;;;5029127;28;20181;-60
2022/11/07 03:24:31;;;;;;;32.10;4.67;;;;;;;;;;5029899;28;20885;-62
2022/11/07 03:26:57;;;;;;;27.90;4.17;;;;;;;;;;5029861;28;20177;-62
2022/11/07 03:29:23;;;;;;;24.23;3.47;;;;;;;;;;5029873;28;20178;-62
2022/11/07 03:31:49;;;;;;;22.50;3.80;;;12.40;99.90;;;;;;5030060;28;20648;-63
2022/11/07 03:34:14;;;;;;;26.80;3.30;;;12.50;99.90;;;;;;5030407;28;20240;-61
2022/11/07 03:36:40;;;;;;;36.07;4.53;;;;;;;;;;5030529;28;20227;-62
2022/11/07 03:39:06;;;;;;;34.03;4.77;;;12.70;99.90;;;;;;5030886;28;20166;-62
2022/11/07 03:41:32;;;;;;;33.60;4.53;;;;;;;;;;5029876;28;20174;-62
2022/11/07 03:43:58;;;;;;;28.40;4.13;;;12.60;99.90;;;;;;5030384;28;20169;-61
2022/11/07 03:46:24;;;;;;;40.20;4.10;;;;;;;;;;5030301;28;20189;-62
2022/11/07 03:48:50;;;;;;;28.80;3.97;;;;;;;;;;5029833;28;20177;-62
2022/11/07 03:51:16;;;;;;;29.17;4.17;;;;;;;;;;5030339;28;20186;-62
2022/11/07 03:53:42;;;;;;;27.03;3.67;;;;;;;;;;5030509;28;20248;-61
2022/11/07 03:56:10;;;;;;;36.07;4.80;;;12.40;99.90;;;;;;5030392;28;20594;-62
2022/11/07 03:58:36;;;;;;;19.83;3.43;;;12.60;99.90;;;;;;5029519;28;20275;-62
2022/11/07 04:01:02;;;;;;;31.53;3.63;;;;;;;;;;5030228;28;20257;-61
2022/11/07 04:03:28;;;;;;;37.27;4.10;;;;;;;;;;5031386;28;20173;-62
2022/11/07 04:05:54;;;;;;;28.37;4.37;;;;;;;;;;5033949;28;20253;-61
2022/11/07 04:08:20;;;;;;;32.87;4.17;;;12.50;99.90;;;;;;5034320;28;20193;-62
2022/11/07 04:10:46;;;;;;;25.17;3.83;;;;;;;;;;5034284;28;20182;-60
2022/11/07 04:18:41;;;;;;;21.43;3.13;;;;;;;;;;5019328;28;20197;-62
2022/11/07 04:21:07;;;;;;;33.93;4.03;;;;;;;;;;5032372;28;20265;-61
2022/11/07 04:23:33;;;;;;;32.50;3.57;;;;;;;;;;5028430;28;20193;-62
2022/11/07 04:28:43;;;;;;;27.67;3.93;;;12.50;99.90;;;;;;5033931;28;20236;-62
2022/11/07 04:31:09;;;;;;;22.30;3.70;;;;;;;;;;5033925;28;20174;-62
2022/11/07 04:33:35;;;;;;;40.77;4.67;;;;;;;;;;5033729;28;20209;-62
2022/11/07 04:36:01;;;;;;;26.03;3.77;;;;;;;;;;5033853;28;20181;-62
2022/11/07 04:38:27;;;;;;;35.50;4.50;;;;;;;;;;5033773;28;20182;-62
2022/11/07 04:40:54;;;;;;;34.40;4.30;;;;;;;;;;5033891;28;20178;-62
2022/11/07 04:43:20;;;;;;;30.33;4.13;;;;;;;;;;5033428;28;20205;-62
2022/11/07 04:45:46;;;;;;;30.63;4.03;;;;;;;;;;5033129;28;20227;-62
2022/11/07 04:48:12;;;;;;;28.57;3.60;;;;;;;;;;5033155;28;20181;-62
2022/11/07 04:50:38;;;;;;;21.83;3.33;;;12.20;99.90;;;;;;5033320;28;20174;-61
2022/11/07 04:53:04;;;;;;;30.13;3.83;;;12.60;99.90;;;;;;5033347;28;20704;-60
2022/11/07 04:55:30;;;;;;;24.87;3.83;;;;;;;;;;5033162;28;20205;-61
2022/11/07 04:57:56;;;;;;;24.27;3.37;;;12.20;99.90;;;;;;5032955;28;20221;-62
2022/11/07 05:00:22;;;;;;;26.87;3.73;;;;;;;;;;5032365;28;20702;-62
2022/11/07 05:02:49;;;;;;;23.20;3.70;;;;;;;;;;5033362;28;21509;-61
2022/11/07 05:05:16;;;;;;;28.20;3.57;;;12.30;99.90;;;;;;5033290;28;20312;-61
2022/11/07 05:07:42;;;;;;;27.53;3.80;;;12.00;99.90;;;;;;5033427;28;20593;-62
2022/11/07 05:10:26;;;;;;;34.27;3.93;;;11.70;99.90;;;;;;5033369;28;20178;-61
2022/11/07 05:12:52;;;;;;;36.17;4.67;;;;;;;;;;5033315;28;20174;-61
2022/11/07 05:15:18;;;;;;;29.90;3.67;;;12.30;99.90;;;;;;5008689;28;20200;-61
2022/11/07 05:17:44;;;;;;;31.77;4.23;;;;;;;;;;5032958;28;20173;-62
2022/11/07 05:20:27;;;;;;;27.83;3.60;;;12.30;99.90;;;;;;5026918;28;20182;-62
2022/11/07 05:23:12;;;;;;;30.43;3.47;;;;;;;;;;5032539;28;20181;-61
2022/11/07 05:25:47;;;;;;;20.53;3.50;;;12.30;99.90;;;;;;5032630;28;20232;-62
2022/11/07 05:28:15;;;;;;;36.37;4.07;;;12.20;99.90;;;;;;5032301;28;20200;-62
2022/11/07 05:30:43;;;;;;;26.60;3.73;;;12.30;99.90;;;;;;5032765;28;20178;-62
2022/11/07 05:33:10;;;;;;;28.33;3.20;;;12.40;99.90;;;;;;5032478;28;20173;-62
2022/11/07 05:35:36;;;;;;;25.53;4.90;;;;;;;;;;5032319;28;20174;-61
2022/11/07 05:38:02;;;;;;;24.13;3.73;;;;;;;;;;5032547;28;20181;-62
2022/11/07 05:40:29;;;;;;;41.00;4.47;;;;;;;;;;5032540;28;20637;-62
2022/11/07 05:43:02;;;;;;;26.93;3.33;;;16.30;99.90;;;;;;5032635;28;20178;-61
2022/11/07 05:45:29;;;;;;;24.60;4.10;;;12.70;99.90;;;;;;5032205;28;20267;-62
2022/11/07 05:47:59;;;;;;;28.60;3.67;;;12.50;99.90;;;;;;5032587;28;20181;-62
2022/11/07 05:50:26;;;;;;;30.03;3.73;;;12.50;99.90;;;;;;5030919;28;20251;-62
2022/11/07 05:52:52;;;;;;;24.40;3.63;;;;;;;;;;5032285;28;20200;-61
2022/11/07 05:55:18;;;;;;;28.33;3.97;;;;;;;;;;5031832;28;20613;-61
2022/11/07 05:57:44;;;;;;;35.93;4.03;;;12.30;99.90;;;;;;5031877;28;20292;-61
2022/11/07 06:00:11;;;;;;;37.60;4.33;;;12.40;99.90;;;;;;5032096;28;20178;-61
2022/11/07 06:02:37;;;;;;;40.07;3.90;;;;;;;;;;5031972;28;20272;-61
2022/11/07 06:05:03;;;;;;;29.47;4.20;;;12.40;99.90;;;;;;5031537;28;20750;-62
2022/11/07 06:07:28;;;;;;;37.67;4.50;;;;;;;;;;5032090;28;20176;-62
2022/11/07 06:09:54;;;;;;;29.13;3.30;;;;;;;;;;5024794;28;20237;-61
2022/11/07 06:12:21;;;;;;;20.47;3.30;;;;;;;;;;5031651;28;20548;-61
2022/11/07 06:14:46;;;;;;;38.03;4.50;;;;;;;;;;5019710;28;20212;-63
2022/11/07 06:17:13;;;;;;;29.50;3.93;;;;;;;;;;5016835;28;20175;-61
2022/11/07 06:19:39;;;;;;;26.17;3.30;;;;;;;;;;5031532;28;20182;-61
2022/11/07 06:22:05;;;;;;;29.30;3.57;;;;;;;;;;5031792;28;20169;-61
2022/11/07 06:24:31;;;;;;;35.90;4.27;;;;;;;;;;5031928;28;20564;-61
2022/11/07 06:26:57;;;;;;;28.97;3.10;;;;;;;;;;5031078;28;20181;-61
2022/11/07 06:29:22;;;;;;;22.53;3.23;;;12.70;99.90;;;;;;5031620;28;20194;-61
2022/11/07 06:31:48;;;;;;;25.50;2.90;;;;;;;;;;5016627;28;20201;-61
2022/11/07 06:34:14;;;;;;;21.50;2.87;;;;;;;;;;5029216;28;20675;-61
2022/11/07 06:36:40;;;;;;;23.63;3.07;;;;;;;;;;5031450;28;20202;-61
2022/11/07 06:39:06;;;;;;;26.03;3.80;;;;;;;;;;5031626;28;20224;-62
2022/11/07 06:41:32;;;;;;;23.83;3.20;;;13.30;99.90;;;;;;5031104;28;20505;-61
2022/11/07 06:43:58;;;;;;;18.87;3.53;;;12.70;99.90;;;;;;5031302;28;20679;-62
2022/11/07 06:46:24;;;;;;;24.97;3.10;;;;;;;;;;5030503;28;20568;-61
2022/11/07 06:48:50;;;;;;;27.43;3.30;;;;;;;;;;5031205;28;20220;-61
2022/11/07 06:51:16;;;;;;;25.63;2.77;;;13.20;99.90;;;;;;5030917;28;20181;-61
2022/11/07 06:53:42;;;;;;;25.23;3.37;;;;;;;;;;5031404;28;20205;-61
2022/11/07 06:56:13;;;;;;;25.57;3.23;;;13.00;99.90;;;;;;5031369;28;20220;-61
2022/11/07 06:58:39;;;;;;;25.23;3.00;;;;;;;;;;5030864;28;20312;-61
2022/11/07 07:01:08;;;;;;;23.97;3.07;;;12.90;99.90;;;;;;5031282;28;20244;-61
2022/11/07 07:03:34;;;;;;;19.73;3.03;;;;;;;;;;5028327;28;20451;-61
2022/11/07 07:06:06;;;;;;;22.17;2.80;;;12.70;99.90;;;;;;5017227;28;20376;-61
2022/11/07 07:08:32;;;;;;;26.17;3.53;;;12.80;99.90;;;;;;5030767;28;20253;-61
2022/11/07 07:11:03;;;;;;;31.47;3.13;;;12.90;99.90;;;;;;5029993;28;20220;-61
2022/11/07 07:13:29;;;;;;;25.53;3.17;;;12.80;99.90;;;;;;5030944;28;20236;-61
2022/11/07 07:15:56;;;;;;;31.47;3.47;;;12.70;99.90;;;;;;5030949;28;20181;-62
2022/11/07 07:18:23;;;;;;;23.70;3.50;;;;;;;;;;5031116;28;20205;-61
2022/11/07 07:20:49;;;;;;;32.00;3.57;;;;;;;;;;5031056;28;20244;-61
2022/11/07 07:23:19;;;;;;;30.40;3.30;;;12.70;99.90;;;;;;5030996;28;20178;-61
2022/11/07 07:25:46;;;;;;;26.77;3.60;;;12.80;99.90;;;;;;5030490;28;20220;-62
2022/11/07 07:28:12;;;;;;;40.77;3.73;;;12.60;99.90;;;;;;5030811;28;20546;-62
2022/11/07 07:30:37;;;;;;;29.63;3.57;;;12.60;99.90;;;;;;5029731;28;20181;-61
2022/11/07 07:33:03;;;;;;;25.00;3.37;;;;;;;;;;5030167;28;20667;-61
2022/11/07 07:35:29;;;;;;;28.27;3.20;;;12.70;99.90;;;;;;5030986;28;20174;-61
2022/11/07 07:37:55;;;;;;;19.33;3.20;;;;;;;;;;5031346;28;20227;-61
2022/11/07 07:40:21;;;;;;;23.97;2.97;;;13.10;99.90;;;;;;5034508;28;20178;-61
2022/11/07 07:42:47;;;;;;;20.23;2.87;;;;;;;;;;5034639;28;20189;-61
2022/11/07 07:45:14;;;;;;;28.73;3.57;;;12.80;99.90;;;;;;5034273;28;20731;-62
2022/11/07 07:47:40;;;;;;;29.10;3.40;;;12.80;99.90;;;;;;5034646;28;20197;-62
2022/11/07 07:50:08;;;;;;;30.47;3.57;;;12.80;99.90;;;;;;5034816;28;20185;-61
2022/11/07 07:52:34;;;;;;;24.60;3.17;;;;;;;;;;5034825;28;20244;-61
2022/11/07 07:55:01;;;;;;;27.90;3.43;;;;;;;;;;5032925;28;20190;-63
2022/11/07 07:57:27;;;;;;;13.50;2.40;;;;;;;;;;5033783;28;20218;-62
2022/11/07 07:59:53;;;;;;;20.73;2.40;;;;;;;;;;5027565;28;20194;-63
2022/11/07 08:02:18;;;;;;;24.07;2.87;;;13.00;99.90;;;;;;5030603;28;20202;-62
2022/11/07 08:04:44;;;;;;;26.73;3.57;;;12.80;99.90;;;;;;5026285;28;20269;-62
2022/11/07 08:07:10;;;;;;;26.13;2.77;;;13.00;99.90;;;;;;5029023;28;20236;-62
2022/11/07 08:09:36;;;;;;;20.93;2.73;;;;;;;;;;5020432;28;20660;-62
2022/11/07 08:12:03;;;;;;;21.20;2.60;;;12.80;99.90;;;;;;5033491;28;20251;-62
2022/11/07 08:14:29;;;;;;;15.70;2.20;;;;;;;;;;5026708;28;20171;-61
2022/11/07 08:16:55;;;;;;;15.37;1.93;;;12.80;99.90;;;;;;5014357;28;20183;-62
2022/11/07 08:19:21;;;;;;;14.83;1.80;;;13.00;99.90;;;;;;5030422;28;20185;-62
2022/11/07 08:21:47;;;;;;;13.17;1.90;;;;;;;;;;5033468;28;20185;-62
2022/11/07 08:24:13;;;;;;;9.23;2.17;;;13.00;99.90;;;;;;5033465;28;20228;-62
2022/11/07 08:26:39;;;;;;;10.80;1.80;;;;;;;;;;5033152;28;20186;-62
2022/11/07 08:29:05;;;;;;;13.03;1.87;;;;;;;;;;5033374;28;20173;-62
2022/11/07 08:31:32;;;;;;;16.13;2.00;;;;;;;;;;5033606;28;20178;-62
2022/11/07 08:33:58;;;;;;;10.40;2.03;;;;;;;;;;5033716;28;20170;-63
2022/11/07 08:36:25;;;;;;;16.83;2.10;;;;;;;;;;5032901;28;20214;-62
2022/11/07 08:38:51;;;;;;;11.07;2.00;;;;;;;;;;5033789;28;20232;-66
2022/11/07 08:41:17;;;;;;;15.53;1.83;;;;;;;;;;5032869;28;20197;-65
2022/11/07 08:43:43;;;;;;;17.83;2.50;;;;;;;;;;5033335;28;20327;-65
2022/11/07 08:46:09;;;;;;;22.07;2.30;;;;;;;;;;5033038;28;20263;-64
2022/11/07 08:48:34;;;;;;;17.83;2.67;;;13.00;99.90;;;;;;5033385;28;20197;-63
2022/11/07 08:51:01;;;;;;;22.67;2.47;;;;;;;;;;5033871;28;20741;-63
2022/11/07 08:53:28;;;;;;;20.57;2.30;;;13.20;99.90;;;;;;5026864;28;20190;-63
2022/11/07 08:56:06;;;;;;;16.60;1.63;;;13.40;99.90;;;;;;5028908;28;20250;-63
2022/11/07 08:58:33;;;;;;;17.23;2.30;;;13.50;99.90;;;;;;5033478;28;20213;-63
2022/11/07 09:00:59;;;;;;;13.67;2.43;;;13.60;99.90;;;;;;5033297;28;20262;-63
2022/11/07 09:03:25;;;;;;;10.53;1.90;;;13.30;99.90;;;;;;5031934;28;20174;-64
2022/11/07 09:05:52;;;;;;;20.13;1.83;;;;;;;;;;5015403;28;20220;-64
2022/11/07 09:08:18;;;;;;;6.60;1.30;;;13.40;99.90;;;;;;5033393;28;20253;-64
2022/11/07 09:10:44;;;;;;;14.17;2.23;;;13.30;99.90;;;;;;5033452;28;20270;-65
2022/11/07 09:13:10;;;;;;;14.20;1.50;;;;;;;;;;5033190;28;20653;-71
2022/11/07 09:15:36;;;;;;;13.00;1.90;;;;;;;;;;5032737;28;20181;-67
2022/11/07 09:18:03;;;;;;;15.03;1.80;;;13.60;99.90;;;;;;5030906;28;20209;-66
2022/11/07 09:20:29;;;;;;;11.07;1.93;;;13.60;99.90;;;;;;5033152;28;20185;-67
2022/11/07 09:22:56;;;;;;;13.63;1.90;;;13.60;99.90;;;;;;5033138;28;20178;-66
2022/11/07 09:25:22;;;;;;;9.33;1.47;;;;;;;;;;5032674;28;20579;-69
2022/11/07 09:27:50;;;;;;;13.10;1.90;;;;;;;;;;5033125;28;20223;-67
2022/11/07 09:30:17;;;;;;;16.70;2.30;;;;;;;;;;5032890;28;20208;-68
2022/11/07 09:32:43;;;;;;;18.53;2.30;;;;;;;;;;5032875;28;20533;-66
2022/11/07 09:35:09;;;;;;;16.63;2.13;;;13.80;99.90;;;;;;5032336;28;20185;-65
2022/11/07 09:37:37;;;;;;;9.53;1.87;;;13.70;99.90;;;;;;5032821;28;20257;-64
2022/11/07 09:40:04;;;;;;;14.93;2.30;;;14.20;99.90;;;;;;5032427;28;20174;-63
2022/11/07 09:42:50;;;;;;;17.87;2.67;;;13.80;99.90;;;;;;5032767;28;20232;-68
2022/11/07 09:45:16;;;;;;;15.70;2.50;;;13.70;99.90;;;;;;5031994;28;20759;-63
2022/11/07 09:47:55;;;;;;;15.77;2.40;;;13.90;99.90;;;;;;5032696;28;20257;-63
2022/11/07 09:50:37;;;;;;;14.53;2.77;;;13.80;99.90;;;;;;5028326;28;20185;-62
2022/11/07 09:53:15;;;;;;;14.40;2.30;;;14.10;99.90;;;;;;5031621;28;20184;-62
2022/11/07 09:55:51;;;;;;;12.07;2.10;;;14.00;99.90;;;;;;5022014;28;20680;-64
2022/11/07 09:58:27;;;;;;;16.63;2.47;;;14.00;99.90;;;;;;5025276;28;20218;-63
2022/11/07 10:00:59;;;;;;;17.60;2.90;;;14.20;99.90;;;;;;5030502;28;20182;-68
2022/11/07 10:03:25;;;;;;;16.10;2.87;;;;;;;;;;5025433;28;20224;-65
2022/11/07 10:06:13;;;;;;;13.47;2.67;;;14.30;99.90;;;;;;5031890;28;20237;-66
2022/11/07 10:08:50;;;;;;;17.17;2.40;;;14.40;99.90;;;;;;5032476;28;20182;-65
2022/11/07 10:11:51;;;;;;;14.37;2.60;;;14.20;99.90;;;;;;4999884;28;20645;-66
2022/11/07 10:14:38;;;;;;;13.97;2.43;;;14.40;99.90;;;;;;4970470;28;20179;-63
2022/11/07 10:17:22;;;;;;;17.23;2.27;;;14.10;99.90;;;;;;5012318;28;20182;-64
2022/11/07 10:20:06;;;;;;;20.80;3.57;;;14.20;99.90;;;;;;5012132;28;20669;-64
2022/11/07 10:23:05;;;;;;;18.87;3.07;;;14.10;99.90;;;;;;5026395;28;20177;-64
2022/11/07 10:25:39;;;;;;;18.47;2.77;;;14.50;99.90;;;;;;5031556;28;20215;-64
2022/11/07 10:28:16;;;;;;;20.27;3.10;;;14.30;99.90;;;;;;5012650;28;20204;-65
2022/11/07 10:30:51;;;;;;;18.17;2.80;;;14.30;99.90;;;;;;5029819;28;20213;-67
2022/11/07 10:33:17;;;;;;;17.45;2.70;;;;;;;;;;5031109;28;20228;-65
2022/11/07 10:35:53;;;;;;;22.77;3.40;;;12.40;99.90;;;;;;5031345;28;20637;-60
2022/11/07 10:38:25;;;;;;;21.50;3.23;;;14.40;99.90;;;;;;5031609;28;20173;-60
2022/11/07 10:40:52;;;;;;;23.60;3.07;;;14.50;99.90;;;;;;5031682;28;20174;-60
2022/11/07 10:43:38;;;;;;;19.77;3.85;;;14.60;99.90;;;;;;5031401;28;20663;-60
2022/11/07 10:46:12;;;;;;;17.53;3.03;;;14.60;99.90;;;;;;5024801;28;20216;-60
2022/11/07 10:48:58;;;;;;;17.43;3.07;;;14.60;99.90;;;;;;5031371;28;20173;-61
2022/11/07 10:51:38;;;;;;;23.80;3.47;;;14.70;99.90;;;;;;5031216;28;20537;-59
2022/11/07 10:54:06;;;;;;;19.70;3.15;;;14.90;99.90;;;;;;5031177;28;20183;-59
2022/11/07 10:56:44;;;;;;;15.88;3.28;;;14.60;99.90;;;;;;5031093;28;20261;-65
2022/11/07 10:59:13;;;;;;;26.80;3.53;;;14.70;99.90;;;;;;5030940;28;20313;-58
2022/11/07 11:01:39;;;;;;;21.38;3.28;;;;;;;;;;5031288;28;20528;-58
2022/11/07 11:04:05;;;;;;;18.73;3.25;;;;;;;;;;5030820;28;20675;-58
2022/11/07 11:06:31;;;;;;;19.25;3.28;;;14.60;99.90;;;;;;5030629;28;20213;-58
2022/11/07 11:08:58;;;;;;;31.38;4.38;;;14.60;99.90;;;;;;5030964;28;20582;-58
2022/11/07 11:11:31;;;;;;;9.23;2.08;;;15.00;99.90;;;;;;5031097;28;20173;-58
2022/11/07 11:14:11;;;;;;;16.37;2.77;;;14.80;99.90;;;;;;5030445;28;20189;-58
2022/11/07 11:16:39;;;;;;;17.73;3.10;;;14.90;99.90;;;;;;5031016;28;20200;-59
2022/11/07 11:19:16;;;;;;;7.18;2.17;;;14.90;99.90;;;;;;5030831;28;20185;-58
2022/11/07 11:21:44;;;;;;;23.33;2.72;;;14.70;99.90;;;;;;5030566;28;20166;-59
2022/11/07 11:24:22;;;;;;;21.02;3.50;;;14.90;99.90;;;;;;5030908;28;20704;-58
2022/11/07 11:26:50;;;;;;;21.40;3.37;;;14.90;99.90;;;;;;5031043;28;20173;-59
2022/11/07 11:29:45;;;;;;;17.75;2.85;;;14.80;99.90;;;;;;5030864;28;20515;-59
2022/11/07 11:32:20;;;;;;;14.80;2.42;;;14.70;99.90;;;;;;5030871;28;20193;-59
2022/11/07 11:34:47;;;;;;;18.65;3.05;;;;;;;;;;5031210;28;20173;-59
2022/11/07 11:37:15;;;;;;;12.20;2.87;;;;;;;;;;5030505;28;20278;-59
2022/11/07 11:39:46;;;;;;;16.93;3.00;;;14.70;99.90;;;;;;5030345;28;20178;-59
2022/11/07 11:42:44;;;;;;;18.27;2.85;;;14.70;99.90;;;;;;5024926;28;20391;-59
2022/11/07 11:45:47;;;;;;;16.58;3.05;;;14.80;99.90;;;;;;5030772;28;20205;-59
2022/11/07 11:48:45;;;;;;;16.90;3.10;;;14.80;99.90;;;;;;5030683;28;20174;-59
2022/11/07 11:51:22;;;;;;;17.40;2.87;;;14.80;99.90;;;;;;4959925;28;20216;-59
2022/11/07 11:53:48;;;;;;;19.30;3.80;;;14.80;99.90;;;;;;5010890;28;20207;-59
2022/11/07 11:56:16;;;;;;;16.73;2.97;;;;;;;;;;5010663;28;20179;-59
2022/11/07 11:59:06;;;;;;;21.85;3.60;;;15.10;99.90;;;;;;5010952;28;20237;-59
2022/11/07 12:01:52;;;;;;;17.73;3.13;;;14.80;99.90;;;;;;5016951;28;20219;-58
2022/11/07 12:04:48;;;;;;;16.00;3.23;;;14.80;99.90;;;;;;5030405;28;20181;-58
2022/11/07 12:07:14;;;;;;;14.32;2.67;;;;;;;;;;5029837;28;20227;-59
2022/11/07 12:09:52;;;;;;;12.07;2.08;;;;;;;;;;5030403;28;20594;-59
2022/11/07 12:12:20;;;;;;;18.63;3.45;;;15.10;99.90;;;;;;5030374;28;20185;-59
2022/11/07 12:15:09;;;;;;;13.00;2.53;;;14.90;99.90;;;;;;5030737;28;20209;-59
2022/11/07 12:17:44;;;;;;;22.53;3.57;;;14.80;99.90;;;;;;4993399;28;20186;-59
2022/11/07 12:20:44;;;;;;;14.00;2.90;;;14.90;99.90;;;;;;5030630;28;20162;-59
2022/11/07 12:23:45;;;;;;;24.53;2.80;;;14.80;99.90;;;;;;5030462;28;20166;-59
2022/11/07 12:26:26;;;;;;;20.50;3.75;;;14.90;99.90;;;;;;5034301;28;20742;-59
2022/11/07 12:29:13;;;;;;;19.52;3.17;;;14.60;99.90;;;;;;5034012;28;20174;-59
2022/11/07 12:32:23;;;;;;;21.30;3.27;;;14.70;99.90;;;;;;5034147;28;20198;-59
2022/11/07 12:35:07;;;;;;;7.83;1.80;;;14.60;99.90;;;;;;5029539;28;20213;-59
2022/11/07 12:38:00;;;;;;;8.97;1.53;;;14.70;99.90;;;;;;5013811;28;20202;-59
2022/11/07 12:40:45;;;;;;;8.52;2.15;;;14.70;99.90;;;;;;5014685;28;20170;-59
2022/11/07 12:43:42;;;;;;;7.10;1.37;;;15.00;99.90;;;;;;5021906;28;20649;-59
2022/11/07 12:46:32;;;;;;;6.95;1.40;;;15.20;99.90;;;;;;5028599;28;20747;-59
2022/11/07 12:49:09;;;;;;;10.45;2.28;;;15.30;99.90;;;;;;5033621;28;20172;-56
2022/11/07 12:51:53;;;;;;;12.82;2.08;;;15.40;99.90;;;;;;5032110;28;20173;-61
2022/11/07 12:54:34;;;;;;;15.57;2.83;;;15.70;99.90;;;;;;5023228;28;20174;-58
2022/11/07 12:57:04;;;;;;;23.83;2.95;;;15.60;99.90;;;;;;5013730;28;20665;-62
2022/11/07 12:59:31;;;;;;;13.30;3.08;;;;;;;;;;5013742;28;20186;-54
2022/11/07 13:02:07;;;;;;;22.38;3.80;;;15.80;99.90;;;;;;5013527;28;20206;-59
2022/11/07 13:04:33;;;;;;;29.92;4.45;;;;;;;;;;5013434;28;20177;-62
2022/11/07 13:07:07;;;;;;;17.98;3.38;;;15.60;99.90;;;;;;4995661;28;20903;-60
2022/11/07 13:09:53;;;;;;;25.15;4.10;;;16.00;99.90;;;;;;5013165;28;20186;-56
2022/11/07 13:12:27;;;;;;;23.38;3.72;;;15.60;99.90;;;;;;5012744;28;20212;-58
2022/11/07 13:14:54;;;;;;;24.92;4.00;;;15.60;99.90;;;;;;5013481;28;20174;-56
2022/11/07 13:17:29;;;;;;;25.08;4.18;;;15.90;99.90;;;;;;5019885;28;20178;-56
2022/11/07 13:19:59;;;;;;;28.58;4.68;;;15.50;99.90;;;;;;5033172;28;20196;-56
2022/11/07 13:22:35;;;;;;;29.98;4.35;;;15.70;99.90;;;;;;5032688;28;20181;-56
2022/11/07 13:25:01;;;;;;;35.85;4.80;;;;;;;;;;5032358;28;20205;-62
2022/11/07 13:27:32;;;;;;;24.83;3.38;;;;;;;;;;5032723;28;20173;-65
2022/11/07 13:30:14;;;;;;;34.53;5.35;;;15.60;99.90;;;;;;5032683;28;20204;-66
2022/11/07 13:32:45;;;;;;;35.60;5.95;;;15.40;99.90;;;;;;5027529;28;20197;-69
2022/11/07 13:35:25;;;;;;;33.63;5.30;;;15.40;99.90;;;;;;5032478;28;20174;-61
2022/11/07 13:38:02;;;;;;;41.95;6.05;;;15.60;99.90;;;;;;5032357;28;20170;-55
2022/11/07 13:40:34;;;;;;;35.47;4.93;;;15.50;99.90;;;;;;5032314;28;20656;-55
2022/11/07 13:43:21;;;;;;;25.42;4.95;;;15.80;99.90;;;;;;5032358;28;20174;-55
2022/11/07 13:45:56;;;;;;;32.08;4.47;;;15.60;99.90;;;;;;5032290;28;20221;-55